Time;durP1;ratioP1;P1;durP2;ratioP2;P2;SDS_P1;SDS_P2;PMS_P1;PMS_P2;Temp;Humidity;BMP_temperature;BMP_pressure;BME280_temperature;BME280_humidity;BME280_pressure;Samples;Min_cycle;Max_cycle;Signal;HPM_P1;HPM_P2
2021/05/07 00:02:19;;;;;;;3.67;2.60;;;;;;;30.63;18.94;94237.56;5056769;28;20056;-43
2021/05/07 00:04:51;;;;;;;;;;;;;;;30.08;19.66;94242.47;5056020;28;20053;-44
2021/05/07 00:07:18;;;;;;;4.88;2.55;;;;;;;30.62;19.18;94239.50;5054882;28;19925;-42
2021/05/07 00:09:45;;;;;;;4.68;3.00;;;;;;;30.51;19.11;94236.25;5056871;28;20052;-43
2021/05/07 00:12:12;;;;;;;4.47;2.53;;;;;;;29.98;19.90;94242.63;5056500;28;20045;-42
2021/05/07 00:14:39;;;;;;;7.20;3.05;;;;;;;30.32;19.55;94240.47;5056273;28;20047;-41
2021/05/07 00:17:06;;;;;;;5.57;3.17;;;;;;;30.28;19.55;94249.81;5056789;28;20048;-64
2021/05/07 00:19:33;;;;;;;4.97;2.47;;;;;;;31.26;18.07;94243.53;5056749;28;20049;-66
2021/05/07 00:22:00;;;;;;;4.63;2.90;;;;;;;29.98;19.63;94248.03;5056368;28;20387;-68
2021/05/07 00:24:27;;;;;;;4.13;2.42;;;;;;;29.43;20.20;94236.63;5054266;28;20059;-66
2021/05/07 00:26:56;;;;;;;3.60;2.47;;;;;;;29.65;19.49;94241.66;5019379;28;20041;-63
2021/05/07 00:29:23;;;;;;;4.43;2.80;;;;;;;30.35;18.92;94228.84;5036635;28;20045;-68
2021/05/07 00:31:50;;;;;;;6.38;2.20;;;;;;;29.62;19.52;94221.69;5051572;28;20052;-68
2021/05/07 00:34:17;;;;;;;5.22;2.42;;;;;;;30.66;18.73;94226.69;5056140;28;20056;-68
2021/05/07 00:36:45;;;;;;;5.57;2.50;;;;;;;30.41;19.11;94231.81;5038840;28;20048;-69
2021/05/07 00:39:12;;;;;;;4.25;2.55;;;;;;;30.77;18.54;94231.13;5056447;28;20124;-68
2021/05/07 00:41:39;;;;;;;3.92;2.53;;;;;;;30.35;18.91;94233.47;5056023;28;20041;-48
2021/05/07 00:44:07;;;;;;;3.97;2.47;;;;;;;29.79;19.80;94227.97;5055854;28;20060;-59
2021/05/07 00:46:37;;;;;;;5.15;2.60;;;;;;;29.33;20.19;94221.38;5056149;28;20041;-69
2021/05/07 00:49:04;;;;;;;6.22;2.20;;;;;;;30.54;19.11;94224.63;5022669;28;20062;-69
2021/05/07 00:51:33;;;;;;;5.28;2.65;;;;;;;30.13;19.59;94233.13;5055735;28;20060;-69
2021/05/07 00:54:00;;;;;;;4.18;2.38;;;;;;;30.05;19.37;94229.81;5056111;28;20049;-44
2021/05/07 00:56:27;;;;;;;5.35;2.90;;;;;;;30.05;19.62;94232.50;5056290;28;20049;-61
2021/05/07 00:58:54;;;;;;;3.83;2.60;;;;;;;29.36;20.30;94220.56;5055993;28;20049;-60
2021/05/07 01:01:21;;;;;;;4.78;2.92;;;;;;;29.49;20.28;94217.34;5055790;28;20052;-63
2021/05/07 01:03:49;;;;;;;5.20;2.90;;;;;;;31.05;18.25;94235.13;5038366;28;20052;-67
2021/05/07 01:06:16;;;;;;;4.32;2.55;;;;;;;29.79;19.54;94209.09;5056045;28;20049;-48
2021/05/07 01:08:44;;;;;;;5.35;2.60;;;;;;;30.87;18.44;94222.03;5056088;28;20052;-69
2021/05/07 01:11:11;;;;;;;5.45;2.70;;;;;;;29.92;19.43;94228.88;5038366;28;20045;-69
2021/05/07 01:13:38;;;;;;;4.63;2.30;;;;;;;30.18;19.10;94229.94;5038125;28;20041;-69
2021/05/07 01:16:11;;;;;;;5.75;2.72;;;;;;;29.71;19.69;94229.28;5037831;28;20478;-69
2021/05/07 01:18:39;;;;;;;4.60;2.58;;;;;;;30.19;19.38;94225.31;5055551;28;20048;-55
2021/05/07 01:21:06;;;;;;;3.95;2.45;;;;;;;29.90;19.57;94231.22;5051041;28;20057;-46
2021/05/07 01:23:34;;;;;;;3.88;2.47;;;;;;;30.54;18.81;94235.41;5018105;28;20049;-69
2021/05/07 01:26:01;;;;;;;4.32;2.42;;;;;;;29.80;19.84;94224.09;5035595;28;20052;-60
2021/05/07 01:28:28;;;;;;;5.13;2.83;;;;;;;30.17;19.30;94222.28;5018426;28;20755;-47
2021/05/07 01:31:07;;;;;;;4.90;3.35;;;;;;;30.07;19.42;94224.78;5049700;28;20052;-42
2021/05/07 01:33:38;;;;;;;3.40;2.50;;;;;;;29.63;19.63;94222.47;5018139;28;20045;-65
2021/05/07 01:36:06;;;;;;;4.43;2.90;;;;;;;29.59;19.75;94221.78;5034456;28;20451;-46
2021/05/07 01:38:34;;;;;;;4.03;2.67;;;;;;;29.87;19.91;94215.88;5035590;28;20041;-70
2021/05/07 01:41:03;;;;;;;3.92;2.72;;;;;;;29.45;20.73;94218.16;5050792;28;20053;-54
2021/05/07 01:43:35;;;;;;;8.02;3.25;;;;;;;29.53;20.11;94220.72;5018022;28;20463;-70
2021/05/07 01:46:04;;;;;;;5.13;2.72;;;;;;;29.30;20.39;94216.81;5052435;28;20045;-69
2021/05/07 01:48:33;;;;;;;3.10;2.40;;;;;;;30.55;19.10;94218.03;5037573;28;20380;-49
2021/05/07 01:51:00;;;;;;;6.65;3.00;;;;;;;28.61;21.35;94215.50;5055048;28;20056;-51
2021/05/07 01:53:30;;;;;;;4.15;2.83;;;;;;;29.91;19.58;94213.88;5018093;28;20045;-68
2021/05/07 01:55:59;;;;;;;5.63;3.22;;;;;;;29.36;20.34;94212.50;5034539;28;20052;-57
2021/05/07 01:58:40;;;;;;;5.43;2.83;;;;;;;29.78;20.19;94202.97;5034353;28;20049;-69
2021/05/07 02:01:08;;;;;;;4.10;2.80;;;;;;;29.06;20.90;94204.50;5037390;28;20076;-65
2021/05/07 02:03:35;;;;;;;4.88;2.70;;;;;;;29.24;20.63;94217.72;5035052;28;20057;-62
2021/05/07 02:06:09;;;;;;;3.90;2.60;;;;;;;29.20;20.75;94212.38;5035135;28;20076;-57
2021/05/07 02:08:40;;;;;;;4.63;2.88;;;;;;;28.87;21.42;94211.31;5017952;28;20049;-59
2021/05/07 02:11:08;;;;;;;4.10;2.67;;;;;;;28.66;21.07;94207.00;5042075;28;20375;-46
2021/05/07 02:13:35;;;;;;;5.82;2.75;;;;;;;28.83;20.68;94203.28;5054976;28;20447;-63
2021/05/07 02:16:02;;;;;;;4.47;2.75;;;;;;;29.64;19.90;94197.06;5054732;28;20051;-63
2021/05/07 02:18:29;;;;;;;5.07;3.20;;;;;;;27.87;22.34;94201.00;5037414;28;20048;-49
2021/05/07 02:21:02;;;;;;;4.30;2.53;;;;;;;29.94;19.62;94204.22;5054577;28;20060;-70
2021/05/07 02:23:33;;;;;;;4.35;2.83;;;;;;;29.31;20.46;94191.44;5037447;28;20040;-70
2021/05/07 02:26:01;;;;;;;5.72;3.33;;;;;;;29.28;20.57;94194.19;5037450;28;20055;-70
2021/05/07 02:28:47;;;;;;;3.38;2.70;;;;;;;28.66;21.40;94198.94;5055038;28;20045;-66
2021/05/07 02:31:15;;;;;;;6.40;3.45;;;;;;;28.90;21.22;94193.63;5040967;28;20057;-66
2021/05/07 02:33:43;;;;;;;5.53;3.35;;;;;;;29.55;19.98;94194.16;5041269;28;20049;-44
2021/05/07 02:36:13;;;;;;;7.15;3.58;;;;;;;29.60;20.23;94196.34;5041167;28;20403;-70
2021/05/07 02:38:41;;;;;;;5.55;3.42;;;;;;;29.41;20.47;94209.34;5057743;28;20367;-70
2021/05/07 02:41:09;;;;;;;5.95;3.13;;;;;;;29.43;20.75;94198.94;5040799;28;20052;-69
2021/05/07 02:43:37;;;;;;;6.05;3.45;;;;;;;28.34;21.36;94203.94;5041074;28;20403;-44
2021/05/07 02:46:07;;;;;;;8.25;3.58;;;;;;;28.61;21.76;94209.34;5050577;28;20463;-45
2021/05/07 02:48:34;;;;;;;5.18;3.40;;;;;;;28.62;21.37;94211.63;5058294;28;20056;-61
2021/05/07 02:51:02;;;;;;;5.75;3.30;;;;;;;27.98;22.40;94207.03;5058194;28;20040;-42
2021/05/07 02:53:30;;;;;;;4.50;3.30;;;;;;;27.96;22.52;94220.09;5058294;28;20049;-66
2021/05/07 02:55:57;;;;;;;5.05;3.40;;;;;;;27.71;22.90;94212.28;5058485;28;20044;-43
2021/05/07 02:58:24;;;;;;;6.05;4.00;;;;;;;29.35;20.81;94205.59;5058441;28;20041;-44
2021/05/07 03:00:52;;;;;;;5.55;3.55;;;;;;;28.41;21.90;94214.63;5058013;28;20052;-70
2021/05/07 03:03:19;;;;;;;6.38;3.55;;;;;;;28.82;21.54;94215.22;5058121;28;20055;-69
2021/05/07 03:05:46;;;;;;;9.07;3.50;;;;;;;28.64;21.67;94219.31;5058189;28;20328;-45
2021/05/07 03:08:19;;;;;;;5.60;3.10;;;;;;;29.00;20.78;94222.28;5058055;28;20056;-63
2021/05/07 03:10:47;;;;;;;7.93;3.67;;;;;;;28.14;21.88;94209.91;5057798;28;20060;-47
2021/05/07 03:13:14;;;;;;;7.47;3.40;;;;;;;28.89;21.14;94213.59;5058034;28;20056;-70
2021/05/07 03:15:41;;;;;;;8.23;3.80;;;;;;;28.16;22.25;94218.34;5057712;28;20051;-70
2021/05/07 03:18:14;;;;;;;8.93;3.65;;;;;;;29.00;21.10;94216.91;5057951;28;20045;-67
2021/05/07 03:20:42;;;;;;;9.60;4.50;;;;;;;28.72;21.08;94218.06;5057653;28;20045;-66
2021/05/07 03:23:12;;;;;;;8.68;3.85;;;;;;;28.92;21.31;94215.50;5057685;28;20049;-69
2021/05/07 03:25:39;;;;;;;5.70;3.33;;;;;;;28.91;21.15;94233.56;5057888;28;20049;-52
2021/05/07 03:28:07;;;;;;;7.13;3.95;;;;;;;28.04;22.21;94232.28;5057613;28;20072;-44
2021/05/07 03:30:35;;;;;;;8.93;4.00;;;;;;;28.09;22.14;94234.53;5057741;28;20040;-56
2021/05/07 03:33:04;;;;;;;10.63;3.50;;;;;;;28.34;22.09;94238.88;5057061;28;20048;-47
2021/05/07 03:35:32;;;;;;;5.82;3.88;;;;;;;28.59;21.98;94238.56;5040095;28;20375;-71
2021/05/07 03:38:00;;;;;;;8.45;3.88;;;;;;;28.47;21.60;94243.34;5057637;28;20048;-59
2021/05/07 03:40:27;;;;;;;9.50;4.38;;;;;;;28.98;21.56;94246.16;5057384;28;20499;-46
2021/05/07 03:42:54;;;;;;;8.07;4.65;;;;;;;28.15;22.15;94249.06;5057122;28;20048;-48
2021/05/07 03:45:22;;;;;;;6.18;3.50;;;;;;;27.90;22.53;94246.63;5045704;28;20045;-68
2021/05/07 03:47:49;;;;;;;7.40;4.05;;;;;;;29.23;21.39;94254.63;5037578;28;20049;-66
2021/05/07 03:50:16;;;;;;;5.97;3.85;;;;;;;28.39;22.02;94254.59;5037446;28;20057;-70
2021/05/07 03:52:43;;;;;;;8.93;4.00;;;;;;;29.08;21.24;94253.31;5053555;28;20444;-66
2021/05/07 03:55:12;;;;;;;7.55;3.78;;;;;;;29.25;21.13;94246.16;5056930;28;20037;-71
2021/05/07 03:57:40;;;;;;;5.15;3.25;;;;;;;29.13;20.83;94250.16;5056358;28;20040;-70
2021/05/07 04:00:11;;;;;;;5.07;3.47;;;;;;;28.02;22.29;94255.34;5052357;28;20049;-56
2021/05/07 04:02:44;;;;;;;4.93;3.38;;;;;;;28.32;22.09;94251.97;5056991;28;20045;-70
2021/05/07 04:05:11;;;;;;;6.15;3.80;;;;;;;29.53;20.79;94250.34;5057114;28;20056;-72
2021/05/07 04:07:39;;;;;;;6.07;3.00;;;;;;;28.22;22.28;94248.97;5057114;28;20052;-40
2021/05/07 04:10:14;;;;;;;5.68;3.25;;;;;;;29.59;21.17;94256.78;5038955;28;20056;-42
2021/05/07 04:15:12;;;;;;;6.18;3.60;;;;;;;29.38;21.74;94266.69;5051392;28;20391;-42
2021/05/07 04:17:39;;;;;;;6.32;3.30;;;;;;;28.73;22.06;94271.44;5054465;28;20044;-57
2021/05/07 04:20:08;;;;;;;4.55;3.25;;;;;;;28.11;23.51;94275.22;5049485;28;20055;-60
2021/05/07 04:22:37;;;;;;;4.82;3.33;;;;;;;30.71;20.44;94267.84;5036709;28;20048;-47
2021/05/07 04:25:09;;;;;;;5.18;3.47;;;;;;;32.30;18.76;94276.88;5036743;28;20487;-44
2021/05/07 04:27:36;;;;;;;;;;;;;;;33.40;17.78;94289.97;5056430;28;20045;-51
2021/05/07 04:30:05;;;;;;;4.93;3.22;;;;;;;34.97;16.16;94281.97;5055073;28;19921;-44
2021/05/07 04:32:32;;;;;;;3.95;2.65;;;;;;;38.28;13.77;94281.22;5036155;28;20052;-45
2021/05/07 04:34:59;;;;;;;3.78;2.88;;;;;;;38.00;14.14;94277.13;5036552;28;20057;-43
2021/05/07 04:37:27;;;;;;;3.65;3.13;;;;;;;37.92;14.32;94282.94;5036508;28;20045;-45
2021/05/07 04:39:54;;;;;;;5.00;2.95;;;;;;;37.92;13.56;94280.22;5046746;28;20329;-41
2021/05/07 04:42:21;;;;;;;4.30;2.95;;;;;;;37.96;14.11;94282.75;5041156;28;20041;-43
2021/05/07 04:44:48;;;;;;;7.68;3.28;;;;;;;37.97;13.40;94279.56;5042538;28;20044;-44
2021/05/07 04:47:15;;;;;;;7.68;3.55;;;;;;;37.71;14.38;94292.16;5056111;28;20053;-72
2021/05/07 04:49:42;;;;;;;9.55;4.38;;;;;;;38.37;14.05;94289.31;5056120;28;20045;-65
2021/05/07 04:52:09;;;;;;;6.28;3.55;;;;;;;37.96;14.58;94293.69;5055704;28;20055;-56
2021/05/07 04:54:36;;;;;;;8.13;3.90;;;;;;;35.33;15.86;94292.25;5053677;28;20045;-46
2021/05/07 04:57:04;;;;;;;6.93;3.50;;;;;;;34.21;16.21;94283.09;5042086;28;20082;-44
2021/05/07 04:59:32;;;;;;;7.05;3.30;;;;;;;33.66;16.27;94289.94;5042040;28;20071;-56
2021/05/07 05:01:59;;;;;;;10.65;3.60;;;;;;;32.70;17.78;94287.38;5018629;28;20041;-43
2021/05/07 05:04:26;;;;;;;4.65;3.03;;;;;;;32.32;17.73;94285.31;5035887;28;20053;-73
2021/05/07 05:06:53;;;;;;;6.43;3.08;;;;;;;32.45;17.97;94286.13;5036015;28;20045;-66
2021/05/07 05:09:20;;;;;;;8.98;3.60;;;;;;;32.57;18.00;94286.59;5040691;28;20050;-75
2021/05/07 05:11:47;;;;;;;10.15;4.03;;;;;;;32.55;17.60;94286.25;5055869;28;20108;-56
2021/05/07 05:14:14;;;;;;;12.23;4.15;;;;;;;32.11;17.98;94292.03;5055229;28;20045;-60
2021/05/07 05:16:42;;;;;;;7.50;3.60;;;;;;;32.42;18.46;94289.69;5038998;28;20049;-68
2021/05/07 05:19:09;;;;;;;7.20;3.60;;;;;;;32.54;17.97;94295.56;5038766;28;20351;-52
2021/05/07 05:21:36;;;;;;;8.30;3.80;;;;;;;32.65;18.07;94301.44;5055814;28;20041;-63
2021/05/07 05:24:03;;;;;;;8.70;3.70;;;;;;;32.38;18.17;94305.25;5046323;28;20057;-74
2021/05/07 05:26:30;;;;;;;5.70;3.50;;;;;;;32.63;17.82;94304.56;5035521;28;20052;-73
2021/05/07 05:28:57;;;;;;;8.48;4.40;;;;;;;32.81;17.33;94298.69;5036569;28;20061;-54
2021/05/07 05:31:24;;;;;;;8.75;4.55;;;;;;;32.45;17.96;94294.22;5055718;28;20045;-73
2021/05/07 05:33:52;;;;;;;8.18;4.47;;;;;;;33.17;16.81;94289.50;5054423;28;20780;-74
2021/05/07 05:36:19;;;;;;;9.32;4.70;;;;;;;33.18;17.25;94299.91;5054881;28;20052;-44
2021/05/07 05:38:46;;;;;;;7.97;4.55;;;;;;;34.38;16.09;94293.81;5043751;28;20045;-74
2021/05/07 05:41:13;;;;;;;14.88;4.30;;;;;;;33.16;17.19;94302.28;5053831;28;20051;-73
2021/05/07 05:43:40;;;;;;;8.93;4.70;;;;;;;32.97;17.02;94304.00;5035266;28;20360;-71
2021/05/07 05:46:07;;;;;;;7.70;4.72;;;;;;;32.50;17.40;94295.63;5052757;28;20064;-51
2021/05/07 05:48:35;;;;;;;7.07;4.18;;;;;;;34.11;15.89;94292.38;5037725;28;20037;-73
2021/05/07 05:51:02;;;;;;;8.95;4.38;;;;;;;34.31;16.17;94290.09;5055285;28;20064;-66
2021/05/07 05:53:29;;;;;;;7.80;4.60;;;;;;;33.83;16.26;94304.09;5055004;28;20436;-73
2021/05/07 05:55:56;;;;;;;5.35;4.28;;;;;;;34.11;16.67;94300.50;5052426;28;20063;-73
2021/05/07 05:58:23;;;;;;;9.07;4.25;;;;;;;34.45;16.17;94304.41;5035313;28;20045;-73
2021/05/07 06:00:51;;;;;;;5.70;4.72;;;;;;;34.74;15.67;94304.91;5050785;28;20056;-73
2021/05/07 06:03:18;;;;;;;6.10;3.65;;;;;;;34.05;15.83;94309.63;5055190;28;20060;-47
2021/05/07 06:05:45;;;;;;;6.85;4.53;;;;;;;35.34;15.15;94299.22;5052810;28;20072;-46
2021/05/07 06:08:12;;;;;;;8.88;4.20;;;;;;;34.80;15.22;94302.38;5039222;28;20049;-73
2021/05/07 06:10:39;;;;;;;8.57;3.60;;;;;;;35.37;15.08;94311.91;5052963;28;20053;-72
2021/05/07 06:13:06;;;;;;;5.38;3.00;;;;;;;35.39;14.86;94314.94;5059094;28;20041;-58
2021/05/07 06:15:33;;;;;;;4.68;2.63;;;;;;;35.62;14.54;94315.59;5058803;28;20495;-57
2021/05/07 06:18:01;;;;;;;4.78;2.90;;;;;;;36.05;14.29;94307.28;5059333;28;20049;-71
2021/05/07 06:20:28;;;;;;;6.30;2.78;;;;;;;35.54;14.53;94294.16;5056021;28;20052;-63
2021/05/07 06:22:55;;;;;;;6.50;2.70;;;;;;;35.48;14.56;94295.94;5038924;28;20440;-59
2021/05/07 06:25:25;;;;;;;3.17;2.42;;;;;;;35.34;14.86;94296.50;5039032;28;20049;-56
2021/05/07 06:27:53;;;;;;;5.28;2.55;;;;;;;35.09;15.02;94291.22;5038987;28;20388;-73
2021/05/07 06:30:20;;;;;;;4.43;2.60;;;;;;;36.18;14.50;94292.78;5049204;28;20052;-72
2021/05/07 06:32:47;;;;;;;4.82;2.47;;;;;;;35.98;14.42;94288.53;5058749;28;20052;-60
2021/05/07 06:35:15;;;;;;;7.38;2.70;;;;;;;35.89;14.83;94285.78;5058651;28;20045;-72
2021/05/07 06:37:42;;;;;;;4.03;2.97;;;;;;;35.88;14.58;94288.97;5041072;28;20449;-72
2021/05/07 06:40:10;;;;;;;4.97;3.30;;;;;;;35.88;14.34;94289.72;5058365;28;20356;-49
2021/05/07 06:42:38;;;;;;;4.53;3.17;;;;;;;35.45;15.05;94275.13;5044149;28;20050;-47
2021/05/07 06:45:10;;;;;;;7.15;3.42;;;;;;;35.86;15.15;94278.53;5030147;28;20460;-73
2021/05/07 06:47:37;;;;;;;12.98;3.38;;;;;;;35.62;15.61;94266.69;5058708;28;20048;-54
2021/05/07 06:50:06;;;;;;;5.35;3.05;;;;;;;36.06;14.52;94270.69;5058323;28;20049;-72
2021/05/07 06:52:33;;;;;;;5.43;2.80;;;;;;;36.06;13.89;94272.66;5058357;28;20478;-66
2021/05/07 06:55:01;;;;;;;4.35;2.60;;;;;;;35.96;14.08;94271.91;5058378;28;20049;-73
2021/05/07 06:57:29;;;;;;;4.72;3.00;;;;;;;36.03;13.75;94258.00;5058499;28;20044;-44
2021/05/07 06:59:56;;;;;;;6.70;2.80;;;;;;;36.35;14.00;94266.78;5058020;28;20460;-74
2021/05/07 07:02:23;;;;;;;5.22;3.00;;;;;;;35.98;14.26;94263.31;5057881;28;20443;-73
2021/05/07 07:04:50;;;;;;;6.55;2.78;;;;;;;36.39;13.74;94253.78;5057985;28;20324;-73
2021/05/07 07:07:17;;;;;;;4.88;3.10;;;;;;;36.16;14.12;94255.13;5058297;28;20056;-53
2021/05/07 07:09:45;;;;;;;7.03;3.25;;;;;;;36.10;14.14;94260.44;5057634;28;20071;-46
2021/05/07 07:12:13;;;;;;;4.22;2.92;;;;;;;36.62;13.94;94260.56;5056289;28;20440;-60
2021/05/07 07:14:40;;;;;;;5.22;3.20;;;;;;;36.83;13.97;94269.78;5043088;28;20048;-73
2021/05/07 07:17:07;;;;;;;5.07;3.10;;;;;;;36.67;13.86;94260.69;5057987;28;20052;-64
2021/05/07 07:19:35;;;;;;;9.48;3.30;;;;;;;36.92;13.89;94265.03;5057631;28;20053;-75
2021/05/07 07:22:04;;;;;;;5.82;3.58;;;;;;;36.89;13.72;94257.03;5058007;28;20056;-51
2021/05/07 07:24:31;;;;;;;7.38;3.50;;;;;;;36.71;14.16;94255.88;5057496;28;20466;-74
2021/05/07 07:26:58;;;;;;;15.93;4.38;;;;;;;37.09;14.29;94235.47;5057772;28;20064;-43
2021/05/07 07:29:25;;;;;;;5.90;3.83;;;;;;;36.73;14.29;94239.81;5057283;28;20045;-44
2021/05/07 07:31:53;;;;;;;7.72;4.20;;;;;;;36.88;14.57;94236.47;5057525;28;20052;-44
2021/05/07 07:34:21;;;;;;;8.02;3.90;;;;;;;37.73;13.69;94237.91;5055676;28;20056;-75
2021/05/07 07:36:48;;;;;;;8.82;3.70;;;;;;;37.41;14.12;94233.25;5037481;28;20056;-44
2021/05/07 07:39:19;;;;;;;8.38;4.05;;;;;;;37.57;13.55;94224.66;5037694;28;20041;-75
2021/05/07 07:41:49;;;;;;;5.87;3.67;;;;;;;37.86;13.59;94219.34;5037550;28;20357;-44
2021/05/07 07:44:18;;;;;;;5.55;4.38;;;;;;;37.70;13.96;94217.00;5039559;28;20057;-43
2021/05/07 07:46:45;;;;;;;8.07;5.90;;;;;;;38.32;14.15;94210.81;5057466;28;20045;-43
2021/05/07 07:49:13;;;;;;;12.43;4.57;;;;;;;38.64;13.71;94208.38;5057084;28;20052;-44
2021/05/07 07:51:40;;;;;;;9.68;5.47;;;;;;;38.03;13.41;94205.28;5056422;28;20052;-44
2021/05/07 07:54:08;;;;;;;8.70;5.65;;;;;;;38.15;13.04;94212.44;5052060;28;20045;-44
2021/05/07 07:56:35;;;;;;;7.60;5.90;;;;;;;37.84;13.54;94202.69;5037247;28;20053;-45
2021/05/07 07:59:03;;;;;;;9.15;5.45;;;;;;;38.75;12.79;94205.84;5055922;28;20052;-44
2021/05/07 08:01:30;;;;;;;6.82;4.57;;;;;;;38.27;14.04;94197.81;5057198;28;20045;-43
2021/05/07 08:03:57;;;;;;;8.65;4.75;;;;;;;38.72;13.69;94198.59;5056856;28;20344;-44
2021/05/07 08:06:24;;;;;;;8.02;4.40;;;;;;;38.11;13.13;94206.41;5056767;28;20329;-44
2021/05/07 08:08:52;;;;;;;6.55;4.05;;;;;;;38.06;13.90;94201.63;5056495;28;20056;-44
2021/05/07 08:11:19;;;;;;;10.45;3.90;;;;;;;38.15;13.63;94190.63;5056685;28;20044;-44
2021/05/07 08:13:46;;;;;;;10.65;4.22;;;;;;;39.01;12.67;94190.34;5056980;28;20360;-44
2021/05/07 08:16:13;;;;;;;8.10;4.20;;;;;;;37.82;13.32;94198.94;5037922;28;20041;-76
2021/05/07 08:18:41;;;;;;;10.00;4.10;;;;;;;38.01;13.12;94202.28;5040911;28;20051;-43
2021/05/07 08:21:08;;;;;;;7.25;4.32;;;;;;;38.14;12.87;94194.56;5056936;28;20041;-64
2021/05/07 08:23:36;;;;;;;9.32;4.28;;;;;;;38.59;13.02;94187.19;5056750;28;20049;-44
2021/05/07 08:26:03;;;;;;;10.52;4.25;;;;;;;39.09;12.74;94175.09;5056472;28;20056;-76
2021/05/07 08:28:30;;;;;;;11.57;8.65;;;;;;;38.54;13.53;94177.69;5055432;28;20052;-76
2021/05/07 08:30:58;;;;;;;11.57;8.52;;;;;;;38.18;14.18;94178.78;5056356;28;20352;-48
2021/05/07 08:33:25;;;;;;;9.77;6.20;;;;;;;38.18;14.35;94178.78;5055891;28;20056;-42
2021/05/07 08:35:52;;;;;;;8.68;4.50;;;;;;;38.91;13.60;94180.75;5056517;28;20047;-44
2021/05/07 08:38:19;;;;;;;9.25;4.30;;;;;;;38.86;13.68;94175.97;5055955;28;20047;-43
2021/05/07 08:40:46;;;;;;;9.40;3.92;;;;;;;38.83;13.86;94176.91;5056445;28;20051;-44
2021/05/07 08:43:14;;;;;;;4.88;3.20;;;;;;;38.96;12.87;94169.16;5056091;28;20041;-45
2021/05/07 08:45:42;;;;;;;10.90;3.72;;;;;;;39.06;13.13;94156.94;5055832;28;20053;-44
2021/05/07 08:48:12;;;;;;;8.82;4.82;;;;;;;38.50;13.06;94172.38;5056139;28;20052;-70
2021/05/07 08:50:39;;;;;;;10.38;4.38;;;;;;;38.10;14.12;94172.94;5056239;28;20045;-61
2021/05/07 08:53:09;;;;;;;6.80;3.50;;;;;;;38.67;12.45;94163.75;5056233;28;20468;-75
2021/05/07 08:55:36;;;;;;;15.13;12.77;;;;;;;38.27;12.85;94159.63;5056067;28;20443;-43
2021/05/07 08:58:03;;;;;;;7.97;5.60;;;;;;;38.83;12.66;94149.59;5055966;28;20052;-45
2021/05/07 09:00:31;;;;;;;9.25;5.03;;;;;;;38.36;13.03;94148.59;5034799;28;20060;-44
2021/05/07 09:03:09;;;;;;;15.40;10.23;;;;;;;39.04;12.24;94136.75;5035674;28;20456;-43
2021/05/07 09:05:37;;;;;;;19.60;16.30;;;;;;;39.28;13.14;94137.31;5035976;28;20080;-45
2021/05/07 09:08:07;;;;;;;30.48;22.98;;;;;;;39.41;12.95;94143.22;5042289;28;20360;-57
2021/05/07 09:10:42;;;;;;;10.68;6.88;;;;;;;39.37;12.68;94130.97;5053581;28;20053;-47
2021/05/07 09:13:11;;;;;;;9.20;6.93;;;;;;;39.78;11.67;94135.22;5055672;28;20052;-44
2021/05/07 09:15:44;;;;;;;5.75;3.75;;;;;;;39.93;11.62;94137.13;5042243;28;20049;-42
2021/05/07 09:18:18;;;;;;;7.80;2.17;;;;;;;36.56;10.89;94161.66;5035645;28;20499;-43
2021/05/07 09:20:47;;;;;;;6.30;1.88;;;;;;;40.75;8.75;94132.91;5053977;28;20040;-45
2021/05/07 09:23:15;;;;;;;3.85;1.65;;;;;;;40.08;9.23;94137.81;5054443;28;20045;-43
2021/05/07 09:25:45;;;;;;;7.03;1.60;;;;;;;39.75;8.88;94138.91;5055397;28;20049;-58
2021/05/07 09:28:15;;;;;;;5.47;1.37;;;;;;;39.43;9.18;94151.69;5055280;28;20036;-55
2021/05/07 09:30:43;;;;;;;5.57;1.30;;;;;;;39.28;9.21;94128.38;5055162;28;20329;-45
2021/05/07 09:33:13;;;;;;;3.33;1.38;;;;;;;39.29;9.58;94124.41;5051759;28;20472;-45
2021/05/07 09:35:41;;;;;;;3.20;1.25;;;;;;;39.06;9.53;94132.34;5053584;28;20045;-41
2021/05/07 09:38:10;;;;;;;4.15;1.30;;;;;;;39.29;9.43;94129.88;5044869;28;20052;-40
2021/05/07 09:40:39;;;;;;;5.15;1.60;;;;;;;39.33;9.64;94119.50;5053811;28;20403;-43
2021/05/07 09:43:12;;;;;;;3.13;1.30;;;;;;;39.41;9.51;94115.88;5035092;28;20042;-60
2021/05/07 09:45:41;;;;;;;4.03;1.30;;;;;;;39.91;9.89;94106.75;5049114;28;20067;-59
2021/05/07 09:48:18;;;;;;;4.38;1.75;;;;;;;39.10;9.80;94102.81;5055157;28;20048;-44
2021/05/07 09:50:46;;;;;;;3.50;1.35;;;;;;;39.31;9.27;94089.91;5055098;28;20056;-55
2021/05/07 09:53:20;;;;;;;2.35;1.40;;;;;;;39.55;10.17;94097.91;5054010;28;20440;-45
2021/05/07 09:55:59;;;;;;;3.53;1.52;;;;;;;39.52;9.43;94087.94;5054850;28;20056;-55
2021/05/07 09:58:27;;;;;;;2.20;1.10;;;;;;;38.74;10.57;94086.88;5039973;28;20045;-64
2021/05/07 10:00:58;;;;;;;4.18;1.30;;;;;;;39.02;9.78;94085.28;5054070;28;20040;-46
2021/05/07 10:03:25;;;;;;;2.40;1.33;;;;;;;39.09;8.92;94109.53;5054951;28;20056;-65
2021/05/07 10:05:52;;;;;;;3.22;1.10;;;;;;;39.22;8.67;94089.28;5055120;28;20364;-62
2021/05/07 10:08:20;;;;;;;2.30;1.02;;;;;;;38.93;9.38;94096.34;5055051;28;20045;-43
2021/05/07 10:10:48;;;;;;;2.97;1.35;;;;;;;39.01;9.84;94083.78;5033589;28;20380;-43
2021/05/07 10:13:24;;;;;;;3.15;1.50;;;;;;;39.19;9.88;94092.97;5034076;28;20046;-58
2021/05/07 10:16:00;;;;;;;3.47;1.50;;;;;;;39.09;9.87;94095.84;5050216;28;20041;-58
2021/05/07 10:18:27;;;;;;;3.65;1.20;;;;;;;39.32;9.74;94085.22;5054905;28;20361;-50
2021/05/07 10:21:00;;;;;;;2.72;1.20;;;;;;;39.38;9.68;94088.75;5054779;28;20037;-53
2021/05/07 10:23:28;;;;;;;4.88;1.40;;;;;;;39.33;9.63;94101.13;5054830;28;20059;-44
2021/05/07 10:26:07;;;;;;;2.92;1.30;;;;;;;39.30;9.48;94104.03;5054980;28;20479;-55
2021/05/07 10:28:52;;;;;;;2.00;1.05;;;;;;;39.10;10.06;94089.16;5054816;28;20056;-67
2021/05/07 10:31:20;;;;;;;4.32;1.30;;;;;;;39.84;9.71;94086.03;5054869;28;20056;-67
2021/05/07 10:33:58;;;;;;;3.65;1.20;;;;;;;39.19;9.88;94082.06;5054772;28;20368;-44
2021/05/07 10:36:47;;;;;;;5.90;1.40;;;;;;;39.29;9.64;94086.13;5054900;28;20049;-49
2021/05/07 10:39:17;;;;;;;3.92;1.13;;;;;;;38.85;10.35;94082.34;5054606;28;20045;-43
2021/05/07 10:41:45;;;;;;;3.13;1.25;;;;;;;38.66;10.60;94053.75;5054818;28;20041;-67
2021/05/07 10:44:15;;;;;;;10.40;1.50;;;;;;;39.58;10.27;94069.63;5054083;28;20051;-62
2021/05/07 10:46:43;;;;;;;7.22;4.13;;;;;;;39.27;10.24;94059.28;5054938;28;20051;-43
2021/05/07 10:49:11;;;;;;;2.85;1.80;;;;;;;38.96;10.01;94062.59;5054403;28;20044;-55
2021/05/07 10:51:38;;;;;;;2.85;1.20;;;;;;;38.47;10.00;94064.13;5057582;28;20049;-44
2021/05/07 10:54:09;;;;;;;5.05;1.55;;;;;;;39.28;10.00;94068.22;5058257;28;20052;-44
2021/05/07 10:56:42;;;;;;;3.80;1.38;;;;;;;39.54;9.78;94058.13;5058292;28;20056;-47
2021/05/07 10:59:17;;;;;;;3.58;1.30;;;;;;;38.92;10.16;94062.06;5042688;28;20045;-44
2021/05/07 11:02:01;;;;;;;6.05;1.30;;;;;;;39.26;9.98;94054.28;5058133;28;20052;-58
2021/05/07 11:04:45;;;;;;;3.60;1.83;;;;;;;39.04;9.85;94049.31;5058020;28;20083;-44
2021/05/07 11:07:12;;;;;;;2.75;1.30;;;;;;;38.91;9.98;94046.91;5058077;28;20049;-46
2021/05/07 11:09:39;;;;;;;6.80;5.53;;;;;;;38.82;10.16;94038.84;5057860;28;20359;-44
2021/05/07 11:12:09;;;;;;;18.70;2.80;;;;;;;38.78;9.87;94033.59;5057838;28;20057;-44
2021/05/07 11:14:43;;;;;;;5.18;2.20;;;;;;;39.34;9.46;94023.34;5057569;28;20041;-44
2021/05/07 11:17:17;;;;;;;2.78;1.50;;;;;;;39.75;9.54;94018.56;5057916;28;20076;-46
2021/05/07 11:19:47;;;;;;;3.40;1.23;;;;;;;39.26;9.92;94010.56;5057622;28;20041;-44
2021/05/07 11:22:14;;;;;;;3.63;1.20;;;;;;;39.55;9.04;94015.88;5057605;28;20041;-65
2021/05/07 11:24:43;;;;;;;4.35;1.55;;;;;;;39.73;7.70;94010.09;5057813;28;20048;-46
2021/05/07 11:27:27;;;;;;;5.97;1.35;;;;;;;40.13;7.29;94008.47;5055333;28;20049;-65
2021/05/07 11:30:15;;;;;;;5.95;1.25;;;;;;;39.87;7.45;93992.06;5057315;28;20395;-43
2021/05/07 11:32:42;;;;;;;2.50;1.20;;;;;;;39.83;6.88;93977.84;5057532;28;20048;-44
2021/05/07 11:35:12;;;;;;;2.47;1.05;;;;;;;40.52;6.71;93980.59;5057623;28;20056;-44
2021/05/07 11:37:42;;;;;;;12.35;11.05;;;;;;;39.77;7.35;93983.25;5053629;28;20052;-56
2021/05/07 11:40:14;;;;;;;6.30;1.70;;;;;;;39.82;7.28;93970.09;5047538;28;20470;-42
2021/05/07 11:42:48;;;;;;;2.70;1.20;;;;;;;40.03;7.33;93971.56;5057344;28;20060;-45
2021/05/07 11:45:19;;;;;;;6.35;1.23;;;;;;;39.56;7.58;93979.13;5057023;28;20491;-42